Terminal Aerodrome Forecast
Issued by NWS Sioux Falls, SD

Home | Current Version | Previous Version | Graphics & Text | Print | Product List | Glossary Off
Versions: 1 2 3 4 5 6 7 8 9 10 11 12

000
FTUS43 KFSD 282322
TAFHON
TAF
KHON 282322Z 2900/2924 17011KT P6SM SCT050 SCT120
     FM290130 20008KT 6SM -TSRA BKN050CB
     FM290500 VRB04KT P6SM -SHRA BKN040
     FM290800 34006KT P6SM OVC035
     FM291300 01014G21KT P6SM OVC012
      AMD NOT SKED=

USA.gov is the U.S. government's official web portal to all federal, state and local government web resources and services.